sensor_id;sensor_type;location;lat;lon;timestamp;temperature;humidity
35305;DHT22;26433;48.034;-1.764;2023-08-21T00:00:38;20.30;75.60
35305;DHT22;26433;48.034;-1.764;2023-08-21T00:05:43;20.30;76.20
35305;DHT22;26433;48.034;-1.764;2023-08-21T00:10:47;20.20;76.60
35305;DHT22;26433;48.034;-1.764;2023-08-21T00:15:51;20.20;76.70
35305;DHT22;26433;48.034;-1.764;2023-08-21T00:20:56;20.10;76.80
35305;DHT22;26433;48.034;-1.764;2023-08-21T00:25:59;20.00;77.20
35305;DHT22;26433;48.034;-1.764;2023-08-21T00:31:04;20.00;77.60
35305;DHT22;26433;48.034;-1.764;2023-08-21T00:36:09;19.90;78.00
35305;DHT22;26433;48.034;-1.764;2023-08-21T00:41:13;19.90;78.40
35305;DHT22;26433;48.034;-1.764;2023-08-21T00:46:17;19.80;78.70
35305;DHT22;26433;48.034;-1.764;2023-08-21T00:51:22;19.80;79.00
35305;DHT22;26433;48.034;-1.764;2023-08-21T00:56:26;19.90;79.00
35305;DHT22;26433;48.034;-1.764;2023-08-21T01:01:30;19.90;79.10
35305;DHT22;26433;48.034;-1.764;2023-08-21T01:06:35;19.80;79.30
35305;DHT22;26433;48.034;-1.764;2023-08-21T01:11:45;19.80;79.60
35305;DHT22;26433;48.034;-1.764;2023-08-21T01:16:52;19.80;80.00
35305;DHT22;26433;48.034;-1.764;2023-08-21T01:21:58;19.70;80.20
35305;DHT22;26433;48.034;-1.764;2023-08-21T01:27:03;19.70;80.50
35305;DHT22;26433;48.034;-1.764;2023-08-21T01:32:09;19.70;80.70
35305;DHT22;26433;48.034;-1.764;2023-08-21T01:37:15;19.70;81.00
35305;DHT22;26433;48.034;-1.764;2023-08-21T01:42:21;19.60;81.10
35305;DHT22;26433;48.034;-1.764;2023-08-21T01:47:24;19.60;81.80
35305;DHT22;26433;48.034;-1.764;2023-08-21T01:52:28;19.50;82.10
35305;DHT22;26433;48.034;-1.764;2023-08-21T01:57:33;19.50;82.40
35305;DHT22;26433;48.034;-1.764;2023-08-21T02:02:37;19.40;82.50
35305;DHT22;26433;48.034;-1.764;2023-08-21T02:07:41;19.40;82.90
35305;DHT22;26433;48.034;-1.764;2023-08-21T02:12:47;19.30;83.30
35305;DHT22;26433;48.034;-1.764;2023-08-21T02:17:50;19.30;83.30
35305;DHT22;26433;48.034;-1.764;2023-08-21T02:22:54;19.30;83.40
35305;DHT22;26433;48.034;-1.764;2023-08-21T02:27:59;19.30;83.80
35305;DHT22;26433;48.034;-1.764;2023-08-21T02:33:04;19.20;84.30
35305;DHT22;26433;48.034;-1.764;2023-08-21T02:38:07;19.20;84.50
35305;DHT22;26433;48.034;-1.764;2023-08-21T02:43:12;19.10;85.00
35305;DHT22;26433;48.034;-1.764;2023-08-21T02:48:16;19.10;85.10
35305;DHT22;26433;48.034;-1.764;2023-08-21T02:53:20;19.10;85.50
35305;DHT22;26433;48.034;-1.764;2023-08-21T02:58:25;19.10;86.00
35305;DHT22;26433;48.034;-1.764;2023-08-21T03:03:28;19.10;85.90
35305;DHT22;26433;48.034;-1.764;2023-08-21T03:08:32;19.10;85.90
35305;DHT22;26433;48.034;-1.764;2023-08-21T03:13:38;19.00;86.60
35305;DHT22;26433;48.034;-1.764;2023-08-21T03:18:54;19.00;86.70
35305;DHT22;26433;48.034;-1.764;2023-08-21T03:23:59;19.00;87.00
35305;DHT22;26433;48.034;-1.764;2023-08-21T03:29:07;19.00;86.80
35305;DHT22;26433;48.034;-1.764;2023-08-21T03:34:11;18.90;87.40
35305;DHT22;26433;48.034;-1.764;2023-08-21T03:39:15;18.90;87.50
35305;DHT22;26433;48.034;-1.764;2023-08-21T03:44:21;18.80;88.00
35305;DHT22;26433;48.034;-1.764;2023-08-21T03:49:24;18.80;88.40
35305;DHT22;26433;48.034;-1.764;2023-08-21T03:54:28;18.70;88.80
35305;DHT22;26433;48.034;-1.764;2023-08-21T03:59:33;18.70;89.20
35305;DHT22;26433;48.034;-1.764;2023-08-21T04:04:37;18.80;89.00
35305;DHT22;26433;48.034;-1.764;2023-08-21T04:09:40;18.80;88.90
35305;DHT22;26433;48.034;-1.764;2023-08-21T04:14:45;18.90;88.60
35305;DHT22;26433;48.034;-1.764;2023-08-21T04:19:49;19.00;88.80
35305;DHT22;26433;48.034;-1.764;2023-08-21T04:24:53;19.00;89.40
35305;DHT22;26433;48.034;-1.764;2023-08-21T04:29:57;19.10;89.80
35305;DHT22;26433;48.034;-1.764;2023-08-21T04:35:01;19.20;89.80
35305;DHT22;26433;48.034;-1.764;2023-08-21T04:40:07;19.20;90.00
35305;DHT22;26433;48.034;-1.764;2023-08-21T04:45:12;19.20;90.30
35305;DHT22;26433;48.034;-1.764;2023-08-21T04:50:16;19.30;90.60
35305;DHT22;26433;48.034;-1.764;2023-08-21T04:55:19;19.30;90.90
35305;DHT22;26433;48.034;-1.764;2023-08-21T05:00:25;19.30;91.20
35305;DHT22;26433;48.034;-1.764;2023-08-21T05:05:29;19.30;91.60
35305;DHT22;26433;48.034;-1.764;2023-08-21T05:10:33;19.30;91.80
35305;DHT22;26433;48.034;-1.764;2023-08-21T05:15:38;19.30;92.10
35305;DHT22;26433;48.034;-1.764;2023-08-21T05:20:42;19.30;92.40
35305;DHT22;26433;48.034;-1.764;2023-08-21T05:25:46;19.40;92.60
35305;DHT22;26433;48.034;-1.764;2023-08-21T05:30:52;19.50;93.00
35305;DHT22;26433;48.034;-1.764;2023-08-21T05:35:57;19.50;93.00
35305;DHT22;26433;48.034;-1.764;2023-08-21T05:41:01;19.50;93.30
35305;DHT22;26433;48.034;-1.764;2023-08-21T05:46:07;19.50;93.60
35305;DHT22;26433;48.034;-1.764;2023-08-21T05:51:10;19.50;93.80
35305;DHT22;26433;48.034;-1.764;2023-08-21T05:56:14;19.60;93.80
35305;DHT22;26433;48.034;-1.764;2023-08-21T06:01:20;19.70;93.90
35305;DHT22;26433;48.034;-1.764;2023-08-21T06:06:24;19.70;94.20
35305;DHT22;26433;48.034;-1.764;2023-08-21T06:11:27;19.70;94.40
35305;DHT22;26433;48.034;-1.764;2023-08-21T06:16:32;19.80;94.60
35305;DHT22;26433;48.034;-1.764;2023-08-21T06:21:36;19.80;94.60
35305;DHT22;26433;48.034;-1.764;2023-08-21T06:26:40;19.90;94.70
35305;DHT22;26433;48.034;-1.764;2023-08-21T06:31:45;20.00;94.80
35305;DHT22;26433;48.034;-1.764;2023-08-21T06:36:50;20.10;94.50
35305;DHT22;26433;48.034;-1.764;2023-08-21T06:41:53;20.20;94.50
35305;DHT22;26433;48.034;-1.764;2023-08-21T06:47:06;20.20;94.50
35305;DHT22;26433;48.034;-1.764;2023-08-21T06:52:12;20.30;94.70
35305;DHT22;26433;48.034;-1.764;2023-08-21T06:57:15;20.30;94.70
35305;DHT22;26433;48.034;-1.764;2023-08-21T07:02:20;20.50;94.70
35305;DHT22;26433;48.034;-1.764;2023-08-21T07:07:24;20.60;94.30
35305;DHT22;26433;48.034;-1.764;2023-08-21T07:12:28;20.60;94.30
35305;DHT22;26433;48.034;-1.764;2023-08-21T07:17:33;20.70;94.20
35305;DHT22;26433;48.034;-1.764;2023-08-21T07:22:37;20.70;94.40
35305;DHT22;26433;48.034;-1.764;2023-08-21T07:27:41;20.90;94.20
35305;DHT22;26433;48.034;-1.764;2023-08-21T07:32:46;21.00;94.00
35305;DHT22;26433;48.034;-1.764;2023-08-21T07:37:50;21.00;93.70
35305;DHT22;26433;48.034;-1.764;2023-08-21T07:42:53;21.20;93.70
35305;DHT22;26433;48.034;-1.764;2023-08-21T07:47:58;21.20;93.60
35305;DHT22;26433;48.034;-1.764;2023-08-21T07:53:15;21.30;93.80
35305;DHT22;26433;48.034;-1.764;2023-08-21T07:58:19;21.40;93.80
35305;DHT22;26433;48.034;-1.764;2023-08-21T08:03:24;21.50;93.90
35305;DHT22;26433;48.034;-1.764;2023-08-21T08:08:28;21.70;93.50
35305;DHT22;26433;48.034;-1.764;2023-08-21T08:13:33;21.70;93.10
35305;DHT22;26433;48.034;-1.764;2023-08-21T08:18:38;21.80;93.10
35305;DHT22;26433;48.034;-1.764;2023-08-21T08:23:42;21.90;93.20
35305;DHT22;26433;48.034;-1.764;2023-08-21T08:28:45;22.00;93.20
35305;DHT22;26433;48.034;-1.764;2023-08-21T08:33:50;22.20;92.80
35305;DHT22;26433;48.034;-1.764;2023-08-21T08:38:54;22.40;92.50
35305;DHT22;26433;48.034;-1.764;2023-08-21T08:43:58;22.50;92.10
35305;DHT22;26433;48.034;-1.764;2023-08-21T08:49:04;22.70;91.70
35305;DHT22;26433;48.034;-1.764;2023-08-21T08:54:08;22.90;91.30
35305;DHT22;26433;48.034;-1.764;2023-08-21T08:59:12;23.20;90.40
35305;DHT22;26433;48.034;-1.764;2023-08-21T09:04:18;23.60;88.40
35305;DHT22;26433;48.034;-1.764;2023-08-21T09:09:22;24.20;84.80
35305;DHT22;26433;48.034;-1.764;2023-08-21T09:14:29;24.80;81.50
35305;DHT22;26433;48.034;-1.764;2023-08-21T09:19:35;25.40;78.40
35305;DHT22;26433;48.034;-1.764;2023-08-21T09:24:38;26.10;76.00
35305;DHT22;26433;48.034;-1.764;2023-08-21T09:29:42;26.90;73.60
35305;DHT22;26433;48.034;-1.764;2023-08-21T09:34:47;27.50;71.50
35305;DHT22;26433;48.034;-1.764;2023-08-21T09:39:51;28.30;69.20
35305;DHT22;26433;48.034;-1.764;2023-08-21T09:44:55;29.10;66.90
35305;DHT22;26433;48.034;-1.764;2023-08-21T09:50:00;29.90;65.10
35305;DHT22;26433;48.034;-1.764;2023-08-21T09:55:05;30.40;64.30
35305;DHT22;26433;48.034;-1.764;2023-08-21T10:00:10;31.10;63.10
35305;DHT22;26433;48.034;-1.764;2023-08-21T10:05:18;31.90;61.40
35305;DHT22;26433;48.034;-1.764;2023-08-21T10:10:22;32.50;60.00
35305;DHT22;26433;48.034;-1.764;2023-08-21T10:15:28;32.90;58.90
35305;DHT22;26433;48.034;-1.764;2023-08-21T10:20:33;33.00;58.50
35305;DHT22;26433;48.034;-1.764;2023-08-21T10:25:41;33.40;57.70
35305;DHT22;26433;48.034;-1.764;2023-08-21T10:30:45;33.80;56.80
35305;DHT22;26433;48.034;-1.764;2023-08-21T10:35:50;34.00;56.10
35305;DHT22;26433;48.034;-1.764;2023-08-21T10:41:07;34.20;55.60
35305;DHT22;26433;48.034;-1.764;2023-08-21T10:46:11;34.20;55.00
35305;DHT22;26433;48.034;-1.764;2023-08-21T10:51:17;34.30;54.90
35305;DHT22;26433;48.034;-1.764;2023-08-21T10:56:21;34.70;54.00
35305;DHT22;26433;48.034;-1.764;2023-08-21T11:01:24;35.20;53.20
35305;DHT22;26433;48.034;-1.764;2023-08-21T11:06:29;35.70;52.30
35305;DHT22;26433;48.034;-1.764;2023-08-21T11:11:35;36.50;51.20
35305;DHT22;26433;48.034;-1.764;2023-08-21T11:16:38;36.90;50.50
35305;DHT22;26433;48.034;-1.764;2023-08-21T11:21:50;37.40;49.80
35305;DHT22;26433;48.034;-1.764;2023-08-21T11:26:54;37.90;48.80
35305;DHT22;26433;48.034;-1.764;2023-08-21T11:31:58;38.10;48.40
35305;DHT22;26433;48.034;-1.764;2023-08-21T11:37:05;38.10;48.00
35305;DHT22;26433;48.034;-1.764;2023-08-21T11:42:10;37.50;48.30
35305;DHT22;26433;48.034;-1.764;2023-08-21T11:47:16;37.70;48.10
35305;DHT22;26433;48.034;-1.764;2023-08-21T11:52:22;38.50;47.00
35305;DHT22;26433;48.034;-1.764;2023-08-21T11:57:27;38.70;46.30
35305;DHT22;26433;48.034;-1.764;2023-08-21T12:02:32;39.00;45.60
35305;DHT22;26433;48.034;-1.764;2023-08-21T12:07:37;39.20;45.30
35305;DHT22;26433;48.034;-1.764;2023-08-21T12:12:41;39.70;44.70
35305;DHT22;26433;48.034;-1.764;2023-08-21T12:17:45;40.10;44.10
35305;DHT22;26433;48.034;-1.764;2023-08-21T12:22:50;39.60;44.30
35305;DHT22;26433;48.034;-1.764;2023-08-21T12:27:53;39.60;44.20
35305;DHT22;26433;48.034;-1.764;2023-08-21T12:33:11;39.60;44.00
35305;DHT22;26433;48.034;-1.764;2023-08-21T12:38:27;39.50;43.90
35305;DHT22;26433;48.034;-1.764;2023-08-21T12:43:31;39.90;43.30
35305;DHT22;26433;48.034;-1.764;2023-08-21T12:48:35;39.80;43.00
35305;DHT22;26433;48.034;-1.764;2023-08-21T12:53:40;39.40;43.20
35305;DHT22;26433;48.034;-1.764;2023-08-21T12:58:45;40.00;42.70
35305;DHT22;26433;48.034;-1.764;2023-08-21T13:03:49;40.00;42.40
35305;DHT22;26433;48.034;-1.764;2023-08-21T13:08:54;40.20;42.30
35305;DHT22;26433;48.034;-1.764;2023-08-21T13:13:57;40.30;41.90
35305;DHT22;26433;48.034;-1.764;2023-08-21T13:19:01;40.60;41.60
35305;DHT22;26433;48.034;-1.764;2023-08-21T13:24:06;41.00;41.20
35305;DHT22;26433;48.034;-1.764;2023-08-21T13:29:10;41.00;41.00
35305;DHT22;26433;48.034;-1.764;2023-08-21T13:34:13;41.00;40.90
35305;DHT22;26433;48.034;-1.764;2023-08-21T13:39:18;40.80;41.00
35305;DHT22;26433;48.034;-1.764;2023-08-21T13:44:22;40.20;41.30
35305;DHT22;26433;48.034;-1.764;2023-08-21T13:49:26;40.10;41.40
35305;DHT22;26433;48.034;-1.764;2023-08-21T13:54:31;40.10;41.10
35305;DHT22;26433;48.034;-1.764;2023-08-21T13:59:34;40.10;41.10
35305;DHT22;26433;48.034;-1.764;2023-08-21T14:04:38;40.20;41.10
35305;DHT22;26433;48.034;-1.764;2023-08-21T14:09:43;40.20;40.90
35305;DHT22;26433;48.034;-1.764;2023-08-21T14:14:47;40.30;40.80
35305;DHT22;26433;48.034;-1.764;2023-08-21T14:19:50;40.00;40.70
35305;DHT22;26433;48.034;-1.764;2023-08-21T14:24:56;39.60;40.80
35305;DHT22;26433;48.034;-1.764;2023-08-21T14:29:59;38.80;41.20
35305;DHT22;26433;48.034;-1.764;2023-08-21T14:35:03;38.60;41.40
35305;DHT22;26433;48.034;-1.764;2023-08-21T14:40:10;38.20;41.80
35305;DHT22;26433;48.034;-1.764;2023-08-21T14:45:13;38.10;41.80
35305;DHT22;26433;48.034;-1.764;2023-08-21T14:50:17;38.00;41.80
35305;DHT22;26433;48.034;-1.764;2023-08-21T14:55:22;37.80;41.90
35305;DHT22;26433;48.034;-1.764;2023-08-21T15:00:26;37.10;42.40
35305;DHT22;26433;48.034;-1.764;2023-08-21T15:05:30;36.50;43.10
35305;DHT22;26433;48.034;-1.764;2023-08-21T15:10:35;36.00;43.50
35305;DHT22;26433;48.034;-1.764;2023-08-21T15:15:38;35.50;43.90
35305;DHT22;26433;48.034;-1.764;2023-08-21T15:20:42;35.10;44.30
35305;DHT22;26433;48.034;-1.764;2023-08-21T15:25:46;34.90;44.40
35305;DHT22;26433;48.034;-1.764;2023-08-21T15:30:50;34.50;44.80
35305;DHT22;26433;48.034;-1.764;2023-08-21T15:35:54;33.90;45.30
35305;DHT22;26433;48.034;-1.764;2023-08-21T15:40:59;33.70;45.80
35305;DHT22;26433;48.034;-1.764;2023-08-21T15:46:03;33.40;46.00
35305;DHT22;26433;48.034;-1.764;2023-08-21T15:51:08;33.00;46.40
35305;DHT22;26433;48.034;-1.764;2023-08-21T15:56:13;32.80;46.80
35305;DHT22;26433;48.034;-1.764;2023-08-21T16:01:16;32.50;47.20
35305;DHT22;26433;48.034;-1.764;2023-08-21T16:06:20;32.20;47.60
35305;DHT22;26433;48.034;-1.764;2023-08-21T16:11:25;31.90;48.50
35305;DHT22;26433;48.034;-1.764;2023-08-21T16:16:28;31.70;48.10
35305;DHT22;26433;48.034;-1.764;2023-08-21T16:21:32;31.60;48.40
35305;DHT22;26433;48.034;-1.764;2023-08-21T16:26:37;31.40;48.40
35305;DHT22;26433;48.034;-1.764;2023-08-21T16:31:40;31.20;48.80
35305;DHT22;26433;48.034;-1.764;2023-08-21T16:36:44;31.10;49.00
35305;DHT22;26433;48.034;-1.764;2023-08-21T16:41:49;31.10;49.00
35305;DHT22;26433;48.034;-1.764;2023-08-21T16:46:53;31.00;48.90
35305;DHT22;26433;48.034;-1.764;2023-08-21T16:51:57;30.90;49.00
35305;DHT22;26433;48.034;-1.764;2023-08-21T16:57:02;30.90;49.10
35305;DHT22;26433;48.034;-1.764;2023-08-21T17:02:05;30.70;49.10
35305;DHT22;26433;48.034;-1.764;2023-08-21T17:07:10;30.70;49.40
35305;DHT22;26433;48.034;-1.764;2023-08-21T17:12:15;30.60;49.60
35305;DHT22;26433;48.034;-1.764;2023-08-21T17:17:19;30.60;49.70
35305;DHT22;26433;48.034;-1.764;2023-08-21T17:22:23;30.60;49.90
35305;DHT22;26433;48.034;-1.764;2023-08-21T17:27:28;30.60;50.00
35305;DHT22;26433;48.034;-1.764;2023-08-21T17:32:31;30.50;50.20
35305;DHT22;26433;48.034;-1.764;2023-08-21T17:37:35;30.40;50.40
35305;DHT22;26433;48.034;-1.764;2023-08-21T17:42:41;30.30;50.50
35305;DHT22;26433;48.034;-1.764;2023-08-21T17:47:44;30.30;50.70
35305;DHT22;26433;48.034;-1.764;2023-08-21T17:52:48;30.20;50.90
35305;DHT22;26433;48.034;-1.764;2023-08-21T17:57:53;30.30;51.10
35305;DHT22;26433;48.034;-1.764;2023-08-21T18:02:59;30.30;51.20
35305;DHT22;26433;48.034;-1.764;2023-08-21T18:08:04;30.30;51.10
35305;DHT22;26433;48.034;-1.764;2023-08-21T18:13:09;30.30;51.10
35305;DHT22;26433;48.034;-1.764;2023-08-21T18:18:12;30.30;51.40
35305;DHT22;26433;48.034;-1.764;2023-08-21T18:23:17;30.30;51.60
35305;DHT22;26433;48.034;-1.764;2023-08-21T18:28:24;30.20;51.90
35305;DHT22;26433;48.034;-1.764;2023-08-21T18:33:28;30.10;52.10
35305;DHT22;26433;48.034;-1.764;2023-08-21T18:38:31;29.80;52.70
35305;DHT22;26433;48.034;-1.764;2023-08-21T18:43:36;29.50;53.70
35305;DHT22;26433;48.034;-1.764;2023-08-21T18:48:40;29.20;54.60
35305;DHT22;26433;48.034;-1.764;2023-08-21T18:53:44;28.80;55.20
35305;DHT22;26433;48.034;-1.764;2023-08-21T18:58:49;28.60;55.90
35305;DHT22;26433;48.034;-1.764;2023-08-21T19:03:52;28.30;56.50
35305;DHT22;26433;48.034;-1.764;2023-08-21T19:08:56;28.10;56.90
35305;DHT22;26433;48.034;-1.764;2023-08-21T19:14:01;28.00;57.50
35305;DHT22;26433;48.034;-1.764;2023-08-21T19:19:05;27.70;58.10
35305;DHT22;26433;48.034;-1.764;2023-08-21T19:24:08;27.50;58.60
35305;DHT22;26433;48.034;-1.764;2023-08-21T19:29:13;27.20;58.90
35305;DHT22;26433;48.034;-1.764;2023-08-21T19:34:17;27.00;59.50
35305;DHT22;26433;48.034;-1.764;2023-08-21T19:39:24;26.80;59.90
35305;DHT22;26433;48.034;-1.764;2023-08-21T19:44:29;26.70;60.40
35305;DHT22;26433;48.034;-1.764;2023-08-21T19:49:32;26.50;60.90
35305;DHT22;26433;48.034;-1.764;2023-08-21T19:54:38;26.30;61.40
35305;DHT22;26433;48.034;-1.764;2023-08-21T19:59:43;26.20;61.80
35305;DHT22;26433;48.034;-1.764;2023-08-21T20:04:47;26.00;62.30
35305;DHT22;26433;48.034;-1.764;2023-08-21T20:09:51;25.90;62.80
35305;DHT22;26433;48.034;-1.764;2023-08-21T20:14:56;25.80;63.20
35305;DHT22;26433;48.034;-1.764;2023-08-21T20:20:01;25.70;63.50
35305;DHT22;26433;48.034;-1.764;2023-08-21T20:25:10;25.50;63.80
35305;DHT22;26433;48.034;-1.764;2023-08-21T20:30:16;25.50;64.10
35305;DHT22;26433;48.034;-1.764;2023-08-21T20:35:20;25.40;64.40
35305;DHT22;26433;48.034;-1.764;2023-08-21T20:40:23;25.20;64.70
35305;DHT22;26433;48.034;-1.764;2023-08-21T20:45:28;25.10;65.20
35305;DHT22;26433;48.034;-1.764;2023-08-21T20:50:32;25.10;65.60
35305;DHT22;26433;48.034;-1.764;2023-08-21T20:55:36;25.00;65.70
35305;DHT22;26433;48.034;-1.764;2023-08-21T21:00:41;24.50;65.90
35305;DHT22;26433;48.034;-1.764;2023-08-21T21:05:45;24.70;66.50
35305;DHT22;26433;48.034;-1.764;2023-08-21T21:10:49;24.70;66.90
35305;DHT22;26433;48.034;-1.764;2023-08-21T21:15:54;24.60;67.20
35305;DHT22;26433;48.034;-1.764;2023-08-21T21:20:58;24.50;67.40
35305;DHT22;26433;48.034;-1.764;2023-08-21T21:26:01;24.40;67.40
35305;DHT22;26433;48.034;-1.764;2023-08-21T21:31:07;24.40;67.90
35305;DHT22;26433;48.034;-1.764;2023-08-21T21:36:10;24.20;68.20
35305;DHT22;26433;48.034;-1.764;2023-08-21T21:41:14;24.10;68.70
35305;DHT22;26433;48.034;-1.764;2023-08-21T21:46:24;24.10;69.00
35305;DHT22;26433;48.034;-1.764;2023-08-21T21:51:27;24.10;69.20
35305;DHT22;26433;48.034;-1.764;2023-08-21T21:56:31;24.10;69.30
35305;DHT22;26433;48.034;-1.764;2023-08-21T22:01:36;24.00;69.50
35305;DHT22;26433;48.034;-1.764;2023-08-21T22:06:40;24.00;70.00
35305;DHT22;26433;48.034;-1.764;2023-08-21T22:11:44;24.00;70.20
35305;DHT22;26433;48.034;-1.764;2023-08-21T22:16:49;23.90;70.40
35305;DHT22;26433;48.034;-1.764;2023-08-21T22:21:53;23.90;70.70
35305;DHT22;26433;48.034;-1.764;2023-08-21T22:26:56;23.90;71.00
35305;DHT22;26433;48.034;-1.764;2023-08-21T22:32:01;23.90;71.00
35305;DHT22;26433;48.034;-1.764;2023-08-21T22:37:05;23.90;71.10
35305;DHT22;26433;48.034;-1.764;2023-08-21T22:42:09;23.80;71.40
35305;DHT22;26433;48.034;-1.764;2023-08-21T22:47:14;23.80;71.60
35305;DHT22;26433;48.034;-1.764;2023-08-21T22:52:17;23.70;71.80
35305;DHT22;26433;48.034;-1.764;2023-08-21T22:57:21;23.60;72.10
35305;DHT22;26433;48.034;-1.764;2023-08-21T23:02:26;23.50;72.50
35305;DHT22;26433;48.034;-1.764;2023-08-21T23:07:30;23.50;72.80
35305;DHT22;26433;48.034;-1.764;2023-08-21T23:12:34;23.50;73.10
35305;DHT22;26433;48.034;-1.764;2023-08-21T23:17:39;23.50;73.30
35305;DHT22;26433;48.034;-1.764;2023-08-21T23:22:43;23.30;73.80
35305;DHT22;26433;48.034;-1.764;2023-08-21T23:27:46;23.30;74.40
35305;DHT22;26433;48.034;-1.764;2023-08-21T23:32:51;23.20;74.80
35305;DHT22;26433;48.034;-1.764;2023-08-21T23:37:55;23.10;75.30
35305;DHT22;26433;48.034;-1.764;2023-08-21T23:42:59;23.00;75.80
35305;DHT22;26433;48.034;-1.764;2023-08-21T23:48:04;23.00;76.30
35305;DHT22;26433;48.034;-1.764;2023-08-21T23:53:08;22.90;76.70
35305;DHT22;26433;48.034;-1.764;2023-08-21T23:58:12;23.00;77.00
